sensor_id;sensor_type;location;lat;lon;timestamp;P1;durP1;ratioP1;P2;durP2;ratioP2
74168;SDS011;62523;53.336;83.690;2022-09-09T00:03:36;16.08;;;7.22;;
74168;SDS011;62523;53.336;83.690;2022-09-09T00:14:13;20.00;;;7.32;;
74168;SDS011;62523;53.336;83.690;2022-09-09T00:19:24;28.67;;;10.18;;
74168;SDS011;62523;53.336;83.690;2022-09-09T00:24:37;20.08;;;8.50;;
74168;SDS011;62523;53.336;83.690;2022-09-09T00:29:43;18.45;;;8.82;;
74168;SDS011;62523;53.336;83.690;2022-09-09T00:39:55;51.13;;;10.27;;
74168;SDS011;62523;53.336;83.690;2022-09-09T00:45:19;15.13;;;7.63;;
74168;SDS011;62523;53.336;83.690;2022-09-09T00:56:04;9.85;;;5.15;;
74168;SDS011;62523;53.336;83.690;2022-09-09T01:01:11;18.88;;;6.05;;
74168;SDS011;62523;53.336;83.690;2022-09-09T01:11:25;12.38;;;5.10;;
74168;SDS011;62523;53.336;83.690;2022-09-09T01:16:32;21.90;;;6.53;;
74168;SDS011;62523;53.336;83.690;2022-09-09T01:21:38;19.27;;;8.75;;
74168;SDS011;62523;53.336;83.690;2022-09-09T01:26:44;27.33;;;8.25;;
74168;SDS011;62523;53.336;83.690;2022-09-09T01:31:55;22.95;;;8.18;;
74168;SDS011;62523;53.336;83.690;2022-09-09T01:37:07;36.45;;;8.18;;
74168;SDS011;62523;53.336;83.690;2022-09-09T01:42:12;23.73;;;9.30;;
74168;SDS011;62523;53.336;83.690;2022-09-09T01:47:15;21.75;;;7.07;;
74168;SDS011;62523;53.336;83.690;2022-09-09T01:52:18;33.10;;;7.90;;
74168;SDS011;62523;53.336;83.690;2022-09-09T01:57:27;38.55;;;8.57;;
74168;SDS011;62523;53.336;83.690;2022-09-09T02:08:09;46.47;;;7.80;;
74168;SDS011;62523;53.336;83.690;2022-09-09T02:13:14;36.97;;;9.10;;
74168;SDS011;62523;53.336;83.690;2022-09-09T02:18:20;64.30;;;10.95;;
74168;SDS011;62523;53.336;83.690;2022-09-09T02:23:28;45.20;;;9.43;;
74168;SDS011;62523;53.336;83.690;2022-09-09T02:28:30;27.33;;;9.82;;
74168;SDS011;62523;53.336;83.690;2022-09-09T02:33:36;48.78;;;11.23;;
74168;SDS011;62523;53.336;83.690;2022-09-09T02:38:46;45.00;;;9.10;;
74168;SDS011;62523;53.336;83.690;2022-09-09T02:43:53;27.13;;;7.65;;
74168;SDS011;62523;53.336;83.690;2022-09-09T02:49:02;20.17;;;5.53;;
74168;SDS011;62523;53.336;83.690;2022-09-09T02:54:28;15.88;;;6.07;;
74168;SDS011;62523;53.336;83.690;2022-09-09T02:59:32;21.00;;;5.38;;
74168;SDS011;62523;53.336;83.690;2022-09-09T03:04:34;31.35;;;7.75;;
74168;SDS011;62523;53.336;83.690;2022-09-09T03:09:35;19.63;;;6.63;;
74168;SDS011;62523;53.336;83.690;2022-09-09T03:14:37;34.30;;;6.95;;
74168;SDS011;62523;53.336;83.690;2022-09-09T03:19:38;32.65;;;6.35;;
74168;SDS011;62523;53.336;83.690;2022-09-09T03:24:40;26.27;;;10.25;;
74168;SDS011;62523;53.336;83.690;2022-09-09T03:29:42;15.02;;;5.13;;
74168;SDS011;62523;53.336;83.690;2022-09-09T03:34:43;13.25;;;4.43;;
74168;SDS011;62523;53.336;83.690;2022-09-09T03:39:45;4.47;;;2.08;;
74168;SDS011;62523;53.336;83.690;2022-09-09T03:44:48;4.22;;;1.52;;
74168;SDS011;62523;53.336;83.690;2022-09-09T03:49:54;9.52;;;1.75;;
74168;SDS011;62523;53.336;83.690;2022-09-09T03:54:56;5.05;;;2.10;;
74168;SDS011;62523;53.336;83.690;2022-09-09T03:59:58;12.52;;;2.13;;
74168;SDS011;62523;53.336;83.690;2022-09-09T04:05:01;12.25;;;1.40;;
74168;SDS011;62523;53.336;83.690;2022-09-09T04:10:03;7.75;;;1.52;;
74168;SDS011;62523;53.336;83.690;2022-09-09T04:15:04;8.80;;;0.93;;
74168;SDS011;62523;53.336;83.690;2022-09-09T04:20:06;3.95;;;1.38;;
74168;SDS011;62523;53.336;83.690;2022-09-09T04:25:11;8.63;;;1.48;;
74168;SDS011;62523;53.336;83.690;2022-09-09T04:30:13;7.95;;;1.48;;
74168;SDS011;62523;53.336;83.690;2022-09-09T04:35:14;4.03;;;1.45;;
74168;SDS011;62523;53.336;83.690;2022-09-09T04:40:15;1.38;;;0.95;;
74168;SDS011;62523;53.336;83.690;2022-09-09T04:45:17;5.82;;;1.67;;
74168;SDS011;62523;53.336;83.690;2022-09-09T04:50:19;12.90;;;2.55;;
74168;SDS011;62523;53.336;83.690;2022-09-09T04:55:20;4.47;;;1.48;;
74168;SDS011;62523;53.336;83.690;2022-09-09T05:00:22;19.27;;;2.17;;
74168;SDS011;62523;53.336;83.690;2022-09-09T05:05:23;1.35;;;0.55;;
74168;SDS011;62523;53.336;83.690;2022-09-09T05:10:26;1.10;;;0.55;;
74168;SDS011;62523;53.336;83.690;2022-09-09T05:15:27;5.20;;;1.95;;
74168;SDS011;62523;53.336;83.690;2022-09-09T05:20:28;16.27;;;2.50;;
74168;SDS011;62523;53.336;83.690;2022-09-09T05:25:30;11.88;;;1.58;;
74168;SDS011;62523;53.336;83.690;2022-09-09T05:30:31;3.22;;;1.38;;
74168;SDS011;62523;53.336;83.690;2022-09-09T05:35:32;0.88;;;0.52;;
74168;SDS011;62523;53.336;83.690;2022-09-09T05:40:34;6.57;;;1.35;;
74168;SDS011;62523;53.336;83.690;2022-09-09T05:45:35;1.17;;;1.00;;
74168;SDS011;62523;53.336;83.690;2022-09-09T05:50:36;3.75;;;0.90;;
74168;SDS011;62523;53.336;83.690;2022-09-09T05:55:37;3.85;;;0.95;;
74168;SDS011;62523;53.336;83.690;2022-09-09T06:00:39;4.95;;;0.70;;
74168;SDS011;62523;53.336;83.690;2022-09-09T06:05:40;4.65;;;0.80;;
74168;SDS011;62523;53.336;83.690;2022-09-09T06:10:41;2.22;;;1.48;;
74168;SDS011;62523;53.336;83.690;2022-09-09T06:15:49;0.68;;;0.45;;
74168;SDS011;62523;53.336;83.690;2022-09-09T06:20:55;6.25;;;1.27;;
74168;SDS011;62523;53.336;83.690;2022-09-09T06:26:10;13.35;;;1.55;;
74168;SDS011;62523;53.336;83.690;2022-09-09T06:31:21;19.10;;;3.05;;
74168;SDS011;62523;53.336;83.690;2022-09-09T06:36:25;14.82;;;2.60;;
74168;SDS011;62523;53.336;83.690;2022-09-09T06:41:31;18.42;;;3.08;;
74168;SDS011;62523;53.336;83.690;2022-09-09T06:46:33;3.42;;;1.38;;
74168;SDS011;62523;53.336;83.690;2022-09-09T06:51:36;6.60;;;1.70;;
74168;SDS011;62523;53.336;83.690;2022-09-09T06:56:44;5.25;;;2.15;;
74168;SDS011;62523;53.336;83.690;2022-09-09T07:01:45;8.55;;;1.63;;
74168;SDS011;62523;53.336;83.690;2022-09-09T07:06:52;5.35;;;1.13;;
74168;SDS011;62523;53.336;83.690;2022-09-09T07:11:55;2.67;;;1.30;;
74168;SDS011;62523;53.336;83.690;2022-09-09T07:17:00;8.52;;;2.08;;
74168;SDS011;62523;53.336;83.690;2022-09-09T07:22:01;12.05;;;1.40;;
74168;SDS011;62523;53.336;83.690;2022-09-09T07:27:03;6.28;;;3.13;;
74168;SDS011;62523;53.336;83.690;2022-09-09T07:32:06;27.80;;;3.38;;
74168;SDS011;62523;53.336;83.690;2022-09-09T07:37:07;7.60;;;0.85;;
74168;SDS011;62523;53.336;83.690;2022-09-09T07:42:09;17.52;;;2.08;;
74168;SDS011;62523;53.336;83.690;2022-09-09T07:47:14;5.85;;;1.33;;
74168;SDS011;62523;53.336;83.690;2022-09-09T07:52:15;7.55;;;1.15;;
74168;SDS011;62523;53.336;83.690;2022-09-09T07:57:17;10.98;;;2.15;;
74168;SDS011;62523;53.336;83.690;2022-09-09T08:02:18;14.68;;;2.42;;
74168;SDS011;62523;53.336;83.690;2022-09-09T08:07:19;12.20;;;1.85;;
74168;SDS011;62523;53.336;83.690;2022-09-09T08:12:22;3.15;;;1.10;;
74168;SDS011;62523;53.336;83.690;2022-09-09T08:17:23;3.65;;;1.23;;
74168;SDS011;62523;53.336;83.690;2022-09-09T08:22:25;10.07;;;1.50;;
74168;SDS011;62523;53.336;83.690;2022-09-09T08:27:26;3.00;;;1.38;;
74168;SDS011;62523;53.336;83.690;2022-09-09T08:32:28;3.72;;;1.23;;
74168;SDS011;62523;53.336;83.690;2022-09-09T08:37:29;7.47;;;1.95;;
74168;SDS011;62523;53.336;83.690;2022-09-09T08:42:35;3.50;;;1.50;;
74168;SDS011;62523;53.336;83.690;2022-09-09T08:53:02;8.63;;;1.90;;
74168;SDS011;62523;53.336;83.690;2022-09-09T08:58:17;14.85;;;1.85;;
74168;SDS011;62523;53.336;83.690;2022-09-09T09:03:28;5.20;;;1.35;;
74168;SDS011;62523;53.336;83.690;2022-09-09T09:13:45;2.05;;;1.65;;
74168;SDS011;62523;53.336;83.690;2022-09-09T09:18:53;2.63;;;1.20;;
74168;SDS011;62523;53.336;83.690;2022-09-09T09:23:58;7.88;;;1.73;;
74168;SDS011;62523;53.336;83.690;2022-09-09T09:29:08;7.80;;;1.50;;
74168;SDS011;62523;53.336;83.690;2022-09-09T09:34:12;2.72;;;0.85;;
74168;SDS011;62523;53.336;83.690;2022-09-09T09:39:26;3.42;;;0.65;;
74168;SDS011;62523;53.336;83.690;2022-09-09T09:44:30;20.27;;;2.22;;
74168;SDS011;62523;53.336;83.690;2022-09-09T09:49:33;23.00;;;2.28;;
74168;SDS011;62523;53.336;83.690;2022-09-09T09:54:37;24.10;;;2.60;;
74168;SDS011;62523;53.336;83.690;2022-09-09T09:59:42;7.07;;;1.55;;
74168;SDS011;62523;53.336;83.690;2022-09-09T10:04:44;12.98;;;1.10;;
74168;SDS011;62523;53.336;83.690;2022-09-09T10:09:51;2.72;;;0.95;;
74168;SDS011;62523;53.336;83.690;2022-09-09T10:15:00;5.97;;;1.83;;
74168;SDS011;62523;53.336;83.690;2022-09-09T10:25:51;14.38;;;1.67;;
74168;SDS011;62523;53.336;83.690;2022-09-09T10:31:17;7.90;;;2.33;;
74168;SDS011;62523;53.336;83.690;2022-09-09T10:36:30;10.77;;;1.77;;
74168;SDS011;62523;53.336;83.690;2022-09-09T10:42:13;5.88;;;1.60;;
74168;SDS011;62523;53.336;83.690;2022-09-09T10:52:58;7.97;;;0.75;;
74168;SDS011;62523;53.336;83.690;2022-09-09T10:58:22;8.98;;;1.15;;
74168;SDS011;62523;53.336;83.690;2022-09-09T11:03:28;3.83;;;0.90;;
74168;SDS011;62523;53.336;83.690;2022-09-09T11:08:30;10.25;;;1.05;;
74168;SDS011;62523;53.336;83.690;2022-09-09T11:13:38;8.60;;;0.93;;
74168;SDS011;62523;53.336;83.690;2022-09-09T11:18:40;7.53;;;1.30;;
74168;SDS011;62523;53.336;83.690;2022-09-09T11:23:44;0.77;;;0.75;;
74168;SDS011;62523;53.336;83.690;2022-09-09T11:45:15;14.18;;;1.75;;
74168;SDS011;62523;53.336;83.690;2022-09-09T11:55:34;13.77;;;1.48;;
74168;SDS011;62523;53.336;83.690;2022-09-09T12:00:41;10.07;;;2.47;;
74168;SDS011;62523;53.336;83.690;2022-09-09T12:05:44;13.65;;;2.38;;
74168;SDS011;62523;53.336;83.690;2022-09-09T12:10:54;4.22;;;1.60;;
74168;SDS011;62523;53.336;83.690;2022-09-09T12:15:58;4.23;;;1.50;;
74168;SDS011;62523;53.336;83.690;2022-09-09T12:26:23;5.25;;;1.52;;
74168;SDS011;62523;53.336;83.690;2022-09-09T12:31:32;8.30;;;1.58;;
74168;SDS011;62523;53.336;83.690;2022-09-09T12:36:35;3.00;;;1.63;;
74168;SDS011;62523;53.336;83.690;2022-09-09T12:41:38;4.40;;;1.85;;
74168;SDS011;62523;53.336;83.690;2022-09-09T12:46:40;9.50;;;1.75;;
74168;SDS011;62523;53.336;83.690;2022-09-09T12:51:43;10.18;;;2.08;;
74168;SDS011;62523;53.336;83.690;2022-09-09T12:56:47;23.48;;;2.85;;
74168;SDS011;62523;53.336;83.690;2022-09-09T13:01:59;5.47;;;3.42;;
74168;SDS011;62523;53.336;83.690;2022-09-09T13:07:07;6.40;;;2.85;;
74168;SDS011;62523;53.336;83.690;2022-09-09T13:12:15;11.40;;;2.60;;
74168;SDS011;62523;53.336;83.690;2022-09-09T13:17:20;8.77;;;2.17;;
74168;SDS011;62523;53.336;83.690;2022-09-09T13:32:39;22.20;;;9.02;;
74168;SDS011;62523;53.336;83.690;2022-09-09T13:37:40;22.05;;;8.30;;
74168;SDS011;62523;53.336;83.690;2022-09-09T13:42:44;8.63;;;4.40;;
74168;SDS011;62523;53.336;83.690;2022-09-09T13:47:46;33.72;;;5.80;;
74168;SDS011;62523;53.336;83.690;2022-09-09T13:52:48;12.65;;;5.07;;
74168;SDS011;62523;53.336;83.690;2022-09-09T13:57:55;21.13;;;6.32;;
74168;SDS011;62523;53.336;83.690;2022-09-09T14:02:58;12.98;;;6.63;;
74168;SDS011;62523;53.336;83.690;2022-09-09T14:08:06;15.73;;;7.35;;
74168;SDS011;62523;53.336;83.690;2022-09-09T14:13:08;18.77;;;8.82;;
74168;SDS011;62523;53.336;83.690;2022-09-09T14:18:11;23.23;;;8.88;;
74168;SDS011;62523;53.336;83.690;2022-09-09T14:23:14;15.70;;;8.98;;
74168;SDS011;62523;53.336;83.690;2022-09-09T14:28:16;37.20;;;14.00;;
74168;SDS011;62523;53.336;83.690;2022-09-09T14:33:18;28.52;;;14.00;;
74168;SDS011;62523;53.336;83.690;2022-09-09T14:38:19;30.98;;;16.00;;
74168;SDS011;62523;53.336;83.690;2022-09-09T14:43:20;50.85;;;18.85;;
74168;SDS011;62523;53.336;83.690;2022-09-09T14:48:21;38.83;;;17.70;;
74168;SDS011;62523;53.336;83.690;2022-09-09T14:53:23;38.67;;;20.65;;
74168;SDS011;62523;53.336;83.690;2022-09-09T14:58:24;46.80;;;26.08;;
74168;SDS011;62523;53.336;83.690;2022-09-09T15:03:25;107.28;;;55.53;;
74168;SDS011;62523;53.336;83.690;2022-09-09T15:08:26;68.15;;;32.30;;
74168;SDS011;62523;53.336;83.690;2022-09-09T15:13:28;68.97;;;34.28;;
74168;SDS011;62523;53.336;83.690;2022-09-09T15:18:29;75.85;;;37.13;;
74168;SDS011;62523;53.336;83.690;2022-09-09T15:23:34;58.17;;;32.17;;
74168;SDS011;62523;53.336;83.690;2022-09-09T15:28:36;51.85;;;25.65;;
74168;SDS011;62523;53.336;83.690;2022-09-09T15:33:38;73.28;;;36.05;;
74168;SDS011;62523;53.336;83.690;2022-09-09T15:38:40;68.47;;;27.02;;
74168;SDS011;62523;53.336;83.690;2022-09-09T15:43:45;83.38;;;39.30;;
74168;SDS011;62523;53.336;83.690;2022-09-09T15:48:47;50.50;;;27.85;;
74168;SDS011;62523;53.336;83.690;2022-09-09T15:53:53;51.65;;;24.65;;
74168;SDS011;62523;53.336;83.690;2022-09-09T15:58:56;57.83;;;25.73;;
74168;SDS011;62523;53.336;83.690;2022-09-09T16:03:59;52.78;;;25.85;;
74168;SDS011;62523;53.336;83.690;2022-09-09T16:09:02;53.25;;;24.85;;
74168;SDS011;62523;53.336;83.690;2022-09-09T16:14:05;46.95;;;18.75;;
74168;SDS011;62523;53.336;83.690;2022-09-09T16:19:07;34.47;;;15.73;;
74168;SDS011;62523;53.336;83.690;2022-09-09T16:24:12;50.58;;;16.83;;
74168;SDS011;62523;53.336;83.690;2022-09-09T16:29:15;39.92;;;15.75;;
74168;SDS011;62523;53.336;83.690;2022-09-09T16:34:17;51.70;;;18.63;;
74168;SDS011;62523;53.336;83.690;2022-09-09T16:39:19;35.40;;;15.60;;
74168;SDS011;62523;53.336;83.690;2022-09-09T16:44:21;24.13;;;13.07;;
74168;SDS011;62523;53.336;83.690;2022-09-09T16:49:22;18.45;;;12.52;;
74168;SDS011;62523;53.336;83.690;2022-09-09T16:54:23;20.25;;;12.95;;
74168;SDS011;62523;53.336;83.690;2022-09-09T16:59:27;39.22;;;16.95;;
74168;SDS011;62523;53.336;83.690;2022-09-09T17:04:29;42.60;;;21.08;;
74168;SDS011;62523;53.336;83.690;2022-09-09T17:09:31;46.33;;;24.05;;
74168;SDS011;62523;53.336;83.690;2022-09-09T17:14:33;72.40;;;27.60;;
74168;SDS011;62523;53.336;83.690;2022-09-09T17:19:34;56.38;;;27.67;;
74168;SDS011;62523;53.336;83.690;2022-09-09T17:24:35;63.72;;;28.58;;
74168;SDS011;62523;53.336;83.690;2022-09-09T17:29:39;62.05;;;26.30;;
74168;SDS011;62523;53.336;83.690;2022-09-09T17:34:40;77.53;;;30.23;;
74168;SDS011;62523;53.336;83.690;2022-09-09T17:39:41;77.20;;;34.30;;
74168;SDS011;62523;53.336;83.690;2022-09-09T17:44:43;69.63;;;32.58;;
74168;SDS011;62523;53.336;83.690;2022-09-09T17:49:44;69.80;;;30.85;;
74168;SDS011;62523;53.336;83.690;2022-09-09T17:54:46;98.05;;;48.05;;
74168;SDS011;62523;53.336;83.690;2022-09-09T17:59:48;78.63;;;28.85;;
74168;SDS011;62523;53.336;83.690;2022-09-09T18:04:50;92.10;;;30.67;;
74168;SDS011;62523;53.336;83.690;2022-09-09T18:09:51;70.00;;;26.80;;
74168;SDS011;62523;53.336;83.690;2022-09-09T18:14:52;74.30;;;27.92;;
74168;SDS011;62523;53.336;83.690;2022-09-09T18:19:55;65.88;;;23.88;;
74168;SDS011;62523;53.336;83.690;2022-09-09T18:24:57;60.63;;;26.65;;
74168;SDS011;62523;53.336;83.690;2022-09-09T18:29:59;44.10;;;20.10;;
74168;SDS011;62523;53.336;83.690;2022-09-09T18:35:00;42.08;;;17.05;;
74168;SDS011;62523;53.336;83.690;2022-09-09T18:40:01;25.27;;;12.55;;
74168;SDS011;62523;53.336;83.690;2022-09-09T18:45:03;18.10;;;9.32;;
74168;SDS011;62523;53.336;83.690;2022-09-09T18:50:05;18.98;;;7.00;;
74168;SDS011;62523;53.336;83.690;2022-09-09T18:55:07;25.25;;;9.30;;
74168;SDS011;62523;53.336;83.690;2022-09-09T19:00:08;16.25;;;7.72;;
74168;SDS011;62523;53.336;83.690;2022-09-09T19:05:10;27.80;;;7.13;;
74168;SDS011;62523;53.336;83.690;2022-09-09T19:10:12;20.60;;;8.85;;
74168;SDS011;62523;53.336;83.690;2022-09-09T19:15:14;22.30;;;8.57;;
74168;SDS011;62523;53.336;83.690;2022-09-09T19:20:16;22.42;;;9.32;;
74168;SDS011;62523;53.336;83.690;2022-09-09T19:25:17;16.90;;;8.63;;
74168;SDS011;62523;53.336;83.690;2022-09-09T19:30:18;16.98;;;7.55;;
74168;SDS011;62523;53.336;83.690;2022-09-09T19:35:19;31.02;;;8.23;;
74168;SDS011;62523;53.336;83.690;2022-09-09T19:40:21;24.42;;;7.72;;
74168;SDS011;62523;53.336;83.690;2022-09-09T19:45:23;29.67;;;6.90;;
74168;SDS011;62523;53.336;83.690;2022-09-09T19:50:24;11.35;;;6.20;;
74168;SDS011;62523;53.336;83.690;2022-09-09T19:55:25;28.55;;;7.53;;
74168;SDS011;62523;53.336;83.690;2022-09-09T20:00:26;29.40;;;9.07;;
74168;SDS011;62523;53.336;83.690;2022-09-09T20:05:27;32.90;;;7.85;;
74168;SDS011;62523;53.336;83.690;2022-09-09T20:10:31;25.05;;;6.80;;
74168;SDS011;62523;53.336;83.690;2022-09-09T20:15:32;22.48;;;9.32;;
74168;SDS011;62523;53.336;83.690;2022-09-09T20:20:33;30.20;;;9.52;;
74168;SDS011;62523;53.336;83.690;2022-09-09T20:25:41;13.98;;;6.78;;
74168;SDS011;62523;53.336;83.690;2022-09-09T20:30:43;28.02;;;9.95;;
74168;SDS011;62523;53.336;83.690;2022-09-09T20:35:44;33.30;;;12.85;;
74168;SDS011;62523;53.336;83.690;2022-09-09T20:40:45;15.32;;;9.20;;
74168;SDS011;62523;53.336;83.690;2022-09-09T20:45:47;38.47;;;13.15;;
74168;SDS011;62523;53.336;83.690;2022-09-09T20:50:49;34.25;;;14.27;;
74168;SDS011;62523;53.336;83.690;2022-09-09T20:55:50;33.67;;;12.48;;
74168;SDS011;62523;53.336;83.690;2022-09-09T21:00:51;42.70;;;13.57;;
74168;SDS011;62523;53.336;83.690;2022-09-09T21:05:53;42.88;;;9.75;;
74168;SDS011;62523;53.336;83.690;2022-09-09T21:10:54;86.50;;;20.58;;
74168;SDS011;62523;53.336;83.690;2022-09-09T21:15:56;74.70;;;15.35;;
74168;SDS011;62523;53.336;83.690;2022-09-09T21:20:58;61.42;;;14.95;;
74168;SDS011;62523;53.336;83.690;2022-09-09T21:25:59;22.50;;;9.63;;
74168;SDS011;62523;53.336;83.690;2022-09-09T21:31:00;32.50;;;9.23;;
74168;SDS011;62523;53.336;83.690;2022-09-09T21:36:05;17.90;;;6.82;;
74168;SDS011;62523;53.336;83.690;2022-09-09T21:41:09;41.42;;;12.52;;
74168;SDS011;62523;53.336;83.690;2022-09-09T21:46:15;39.47;;;12.05;;
74168;SDS011;62523;53.336;83.690;2022-09-09T21:51:17;39.65;;;11.27;;
74168;SDS011;62523;53.336;83.690;2022-09-09T21:56:19;36.55;;;12.80;;
74168;SDS011;62523;53.336;83.690;2022-09-09T22:01:20;41.95;;;12.60;;
74168;SDS011;62523;53.336;83.690;2022-09-09T22:06:24;34.55;;;10.65;;
74168;SDS011;62523;53.336;83.690;2022-09-09T22:11:25;41.20;;;14.00;;
74168;SDS011;62523;53.336;83.690;2022-09-09T22:16:27;19.92;;;5.90;;
74168;SDS011;62523;53.336;83.690;2022-09-09T22:21:29;22.35;;;6.68;;
74168;SDS011;62523;53.336;83.690;2022-09-09T22:26:33;29.13;;;8.30;;
74168;SDS011;62523;53.336;83.690;2022-09-09T22:31:36;20.45;;;7.40;;
74168;SDS011;62523;53.336;83.690;2022-09-09T22:36:37;31.33;;;8.52;;
74168;SDS011;62523;53.336;83.690;2022-09-09T22:41:38;34.85;;;6.95;;
74168;SDS011;62523;53.336;83.690;2022-09-09T22:46:39;24.05;;;7.15;;
74168;SDS011;62523;53.336;83.690;2022-09-09T22:56:41;14.77;;;7.78;;
74168;SDS011;62523;53.336;83.690;2022-09-09T23:11:46;72.22;;;14.38;;
74168;SDS011;62523;53.336;83.690;2022-09-09T23:16:47;61.35;;;12.50;;
74168;SDS011;62523;53.336;83.690;2022-09-09T23:21:52;67.53;;;12.30;;
74168;SDS011;62523;53.336;83.690;2022-09-09T23:26:53;43.40;;;10.88;;
74168;SDS011;62523;53.336;83.690;2022-09-09T23:31:55;27.80;;;9.95;;
74168;SDS011;62523;53.336;83.690;2022-09-09T23:41:57;41.85;;;9.13;;
74168;SDS011;62523;53.336;83.690;2022-09-09T23:46:59;24.58;;;9.00;;
74168;SDS011;62523;53.336;83.690;2022-09-09T23:52:01;28.17;;;7.45;;
74168;SDS011;62523;53.336;83.690;2022-09-09T23:57:05;18.67;;;7.80;;
